Latest Weather Observations for Scone Airport

IDN60801

Issued at 8:03 pm EST Monday 26 September 2016 (issued every 30 minutes, with the page automatically refreshed every 10 minutes)

About weather observations | Map of weather stations | Latest weather observations for NSW | Other Formats
Station Details ID: 061363 Name: SCONE AIRPORT AWS Lat: -32.03 Lon: 150.83 Height: 221.4 m
Data from the previous 72 hours. | See also: Recent months at Scone Airport
Date/Time
EST
Temp
°C
App
Temp
°C
Dew
Point
°C
Rel
Hum
%
Delta-T
°C
Wind Press
QNH
hPa
Press
MSL
hPa
Rain since
9am
mm
Dir  Spd
km/h
Gust
km/h
Spd
kts
Gust
kts
26/08:00pm 12.6 10.2 4.1 56 3.9 NW 6 11 3 6 1014.0 1013.8 0.0
26/07:30pm 13.1 10.6 4.5 56 4.0 NW 7 15 4 8 1013.6 1013.4 0.0
26/07:00pm 13.8 10.6 4.9 55 4.2 W 11 24 6 13 1013.0 1012.8 0.0
26/06:30pm 14.6 9.9 5.1 53 4.5 WSW 19 35 10 19 1012.4 1012.1 0.0
26/06:00pm 15.0 9.8 5.5 53 4.6 WSW 22 32 12 17 1011.5 1011.3 0.0
26/05:30pm 15.5 10.4 6.2 54 4.6 WSW 22 35 12 19 1010.8 1010.6 0.0
26/05:00pm 16.5 12.6 6.9 53 4.8 WSW 17 24 9 13 1010.3 1010.1 0.0
26/04:30pm 18.8 14.9 6.9 46 6.0 WSW 17 26 9 14 1009.8 1009.6 0.0
26/04:00pm 18.8 14.9 6.9 46 6.1 NW 17 24 9 13 1009.6 1009.4 0.0
26/03:30pm 20.6 16.4 8.3 45 6.5 NW 20 28 11 15 1009.6 1009.4 0.0
26/03:00pm 20.5 17.5 9.1 48 6.1 NW 15 30 8 16 1009.9 1009.7 0.0
26/02:30pm 20.4 16.5 9.6 50 5.8 NW 20 28 11 15 1010.1 1009.9 0.0
26/02:00pm 20.4 17.1 9.6 50 5.8 NW 17 28 9 15 1010.5 1010.3 0.0
26/01:30pm 20.0 16.5 8.7 48 6.0 NW 17 24 9 13 1010.8 1010.6 0.0
26/01:00pm 20.4 17.0 9.0 48 6.1 NW 17 22 9 12 1011.2 1011.0 0.0
26/12:30pm 19.7 16.3 7.8 46 6.2 NW 15 24 8 13 1011.5 1011.3 0.0
26/12:00pm 19.3 15.5 7.4 46 6.1 WNW 17 24 9 13 1011.9 1011.6 0.0
26/11:30am 19.1 15.6 5.6 41 6.7 WNW 13 24 7 13 1012.5 1012.2 0.0
26/11:00am 18.1 14.2 6.9 48 5.7 W 17 24 9 13 1013.0 1012.8 0.0
26/10:30am 17.1 12.5 6.3 49 5.4 W 20 28 11 15 1013.5 1013.3 0.0
26/10:00am 16.7 12.8 7.1 53 4.8 WNW 17 26 9 14 1013.8 1013.6 0.0
26/09:30am 16.3 13.2 7.3 55 4.5 WNW 13 20 7 11 1013.9 1013.7 0.0
26/09:00am 15.6 11.7 6.9 56 4.3 WNW 17 22 9 12 1013.9 1013.7 0.2
26/08:30am 15.1 12.9 7.9 62 3.6 NW 9 15 5 8 1014.1 1013.9 0.2
26/08:00am 14.3 12.2 8.3 67 3.0 NNW 9 15 5 8 1014.3 1014.1 0.2
26/07:30am 13.4 11.5 7.6 68 2.9 NNW 7 11 4 6 1014.3 1014.1 0.2
26/07:00am 11.4 9.3 8.4 82 1.5 WNW 9 13 5 7 1014.3 1014.1 0.2
26/06:30am 9.9 8.0 7.5 85 1.2 NW 7 11 4 6 1014.0 1013.8 0.2
26/06:00am 8.7 6.8 6.8 88 0.9 NNW 6 9 3 5 1013.8 1013.6 0.2
26/05:30am 9.7 6.9 6.8 82 1.4 WNW 11 15 6 8 1013.3 1013.1 0.2
26/05:00am 10.6 6.8 7.7 82 1.4 WNW 17 24 9 13 1013.2 1013.0 0.2
26/04:30am 10.4 7.0 7.5 82 1.4 WNW 15 20 8 11 1013.0 1012.8 0.2
26/04:00am 11.0 7.7 8.1 82 1.4 WNW 15 20 8 11 1012.6 1012.3 0.2
26/03:30am 10.9 8.4 8.0 82 1.4 NW 11 20 6 11 1012.5 1012.2 0.2
26/03:00am 11.3 9.1 7.8 79 1.7 NW 9 15 5 8 1012.6 1012.3 0.2
26/02:30am 10.8 8.5 7.5 80 1.6 NW 9 15 5 8 1012.4 1012.1 0.2
26/02:00am 12.2 9.6 7.9 75 2.1 NW 11 17 6 9 1012.4 1012.1 0.2
26/01:30am 12.2 9.0 8.3 77 1.9 NW 15 19 8 10 1012.5 1012.2 0.2
26/01:00am 12.2 8.6 8.3 77 1.9 WNW 17 22 9 12 1012.5 1012.2 0.2
26/12:30am 13.0 11.8 8.1 72 2.5 NNE 4 9 2 5 1012.4 1012.1 0.2
26/12:00am 13.3 10.6 9.0 75 2.2 WNW 13 19 7 10 1012.2 1011.9 0.2
 
Date/Time
EST
Temp
°C
App
Temp
°C
Dew
Point
°C
Rel
Hum
%
Delta-T
°C
Wind Press
QNH
hPa
Press
MSL
hPa
Rain since
9am
mm
Dir  Spd
km/h
Gust
km/h
Spd
kts
Gust
kts
25/11:30pm 14.1 12.8 9.1 72 2.6 N 6 13 3 7 1012.2 1011.9 0.2
25/11:00pm 14.5 13.1 9.7 73 2.5 NW 7 11 4 6 1012.2 1011.9 0.2
25/10:30pm 14.3 12.2 9.9 75 2.3 WNW 11 22 6 12 1012.3 1012.0 0.2
25/10:00pm 14.7 13.0 9.9 73 2.5 N 9 15 5 8 1011.7 1011.5 0.2
25/09:30pm 14.3 12.6 9.7 74 2.4 NNW 9 13 5 7 1011.3 1011.1 0.2
25/09:00pm 14.1 12.4 9.7 75 2.3 NW 9 15 5 8 1011.1 1010.9 0.2
25/08:30pm 14.4 12.6 9.6 73 2.5 NNW 9 15 5 8 1010.9 1010.7 0.2
25/08:00pm 14.2 12.1 9.6 74 2.4 NW 11 17 6 9 1010.6 1010.4 0.2
25/07:30pm 14.2 12.3 9.2 72 2.6 NW 9 13 5 7 1010.3 1010.1 0.2
25/07:00pm 14.5 11.9 9.5 72 2.6 NW 13 20 7 11 1009.8 1009.6 0.2
25/06:30pm 15.6 13.1 9.7 68 3.1 NW 13 19 7 10 1009.3 1009.1 0.2
25/06:00pm 15.9 14.6 10.0 68 3.1 NW 7 15 4 8 1009.0 1008.8 0.2
25/05:30pm 17.1 13.9 10.0 63 3.8 WNW 17 30 9 16 1008.6 1008.3 0.2
25/05:00pm 18.0 15.1 10.9 63 3.9 WNW 17 28 9 15 1008.1 1007.8 0.2
25/04:30pm 18.8 15.7 11.6 63 4.0 WNW 19 28 10 15 1007.7 1007.4 0.2
25/04:00pm 18.9 15.7 11.9 64 3.9 WNW 20 26 11 14 1007.5 1007.2 0.2
25/03:30pm 17.4 15.5 11.7 69 3.1 NW 13 19 7 10 1007.3 1007.0 0.2
25/03:00pm 17.4 15.3 12.3 72 2.9 NW 15 22 8 12 1007.3 1007.0 0.2
25/02:30pm 17.7 14.9 11.5 67 3.4 NNW 17 24 9 13 1007.2 1006.9 0.2
25/02:00pm 16.9 14.1 11.4 70 3.0 NW 17 24 9 13 1007.3 1007.0 0.2
25/01:30pm 16.1 12.7 11.1 72 2.7 NW 20 28 11 15 1007.2 1006.9 0.2
25/01:00pm 16.4 12.1 10.9 70 3.0 NW 24 32 13 17 1007.0 1006.8 0.2
25/12:30pm 17.1 12.9 11.2 68 3.2 NW 24 32 13 17 1006.8 1006.6 0.2
25/12:00pm 17.9 15.6 11.9 68 3.3 NNW 15 22 8 12 1006.9 1006.7 0.2
25/11:30am 17.0 14.9 11.3 69 3.1 WNW 13 19 7 10 1007.4 1007.1 0.2
25/11:00am 16.2 14.6 11.4 73 2.6 NW 11 17 6 9 1007.9 1007.6 0.2
25/10:30am 15.7 13.1 10.7 72 2.7 WNW 15 19 8 10 1008.4 1008.1 0.2
25/10:00am 15.4 13.9 12.0 80 1.9 NW 11 15 6 8 1008.6 1008.3 0.2
25/09:30am 14.7 13.6 10.5 76 2.2 W 7 9 4 5 1008.9 1008.7 0.2
25/09:00am 14.5 13.4 11.8 84 1.5 WNW 9 11 5 6 1009.1 1008.9 0.8
25/08:30am 14.1 13.0 12.0 87 1.1 WNW 9 15 5 8 1009.1 1008.9 0.8
25/08:00am 13.6 12.2 11.0 84 1.4 WNW 9 13 5 7 1008.9 1008.7 0.8
25/07:30am 13.4 11.8 11.5 88 1.0 WNW 11 15 6 8 1008.8 1008.6 0.6
25/07:00am 13.4 12.5 12.5 94 0.5 NW 9 13 5 7 1008.5 1008.2 0.6
25/06:30am 13.1 11.9 11.7 91 0.8 WNW 9 11 5 6 1008.3 1008.0 0.4
25/06:00am 13.3 12.0 11.4 88 1.0 W 9 13 5 7 1007.9 1007.6 0.4
25/05:30am 13.1 12.5 11.8 92 0.7 SE 6 7 3 4 1007.4 1007.1 0.4
25/05:00am 13.1 13.5 11.3 89 1.0 CALM 0 6 0 3 1007.0 1006.8 0.4
25/04:30am 13.4 12.2 11.5 88 1.0 NW 9 13 5 7 1006.9 1006.7 0.4
25/04:00am 13.9 12.2 11.2 84 1.5 NNW 11 17 6 9 1006.7 1006.5 0.2
25/03:30am 13.6 12.9 11.5 87 1.1 W 6 7 3 4 1006.9 1006.7 0.0
25/03:00am 13.8 13.0 11.1 84 1.4 NNE 6 7 3 4 1007.2 1006.9 0.0
25/02:30am 14.5 13.5 11.1 80 1.8 NNW 7 11 4 6 1007.5 1007.2 0.0
25/02:00am 13.9 12.6 11.2 84 1.5 NW 9 11 5 6 1007.7 1007.4 0.0
25/01:30am 13.5 12.4 10.5 82 1.6 NE 7 9 4 5 1007.3 1007.0 0.0
25/01:00am 14.2 13.4 11.0 81 1.7 N 6 9 3 5 1008.2 1007.9 0.0
25/12:30am 13.7 13.9 10.7 82 1.6 CALM 0 6 0 3 1008.6 1008.3 0.0
25/12:00am 13.5 12.7 10.9 84 1.4 ENE 6 6 3 3 1008.6 1008.3 0.0
 
Date/Time
EST
Temp
°C
App
Temp
°C
Dew
Point
°C
Rel
Hum
%
Delta-T
°C
Wind Press
QNH
hPa
Press
MSL
hPa
Rain since
9am
mm
Dir  Spd
km/h
Gust
km/h
Spd
kts
Gust
kts
24/11:30pm 13.2 13.1 10.9 86 1.2 NE 2 7 1 4 1008.5 1008.2 0.0
24/11:00pm 12.7 12.4 10.2 85 1.3 ENE 2 9 1 5 1008.6 1008.3 0.0
24/10:30pm 12.2 11.1 10.1 87 1.1 ENE 6 9 3 5 1008.6 1008.3 0.0
24/10:00pm 12.6 11.5 10.1 85 1.3 NW 6 9 3 5 1008.9 1008.7 0.0
24/09:30pm 12.3 11.1 9.7 84 1.3 NW 6 7 3 4 1008.6 1008.3 0.0
24/09:00pm 12.9 11.7 9.7 81 1.7 N 6 7 3 4 1008.8 1008.6 0.0
24/08:30pm 12.9 12.8 9.5 80 1.7 CALM 0 0 0 0 1009.1 1008.9 0.0
24/08:00pm 13.5 12.7 9.7 78 2.0 N 4 7 2 4 1009.3 1009.1 0.0
24/07:30pm 13.7 11.7 10.1 79 1.9 WNW 11 15 6 8 1009.1 1008.9 0.0
24/07:00pm 15.9 14.6 9.1 64 3.5 N 6 7 3 4 1008.4 1008.1 0.0
24/06:30pm 17.6 16.2 9.0 57 4.5 N 6 7 3 4 1008.5 1008.2 0.0
24/06:00pm 17.4 14.7 9.1 58 4.4 NW 13 15 7 8 1008.6 1008.3 0.0
24/05:30pm 18.6 15.9 9.1 54 5.0 NW 13 15 7 8 1008.2 1007.9 0.0
24/05:00pm 20.2 17.3 9.5 50 5.8 NW 15 22 8 12 1008.1 1007.8 0.0
24/04:30pm 21.5 19.0 10.9 51 5.9 NW 15 22 8 12 1008.0 1007.7 0.0
24/04:00pm 22.1 19.3 9.9 46 6.7 WNW 15 20 8 11 1007.9 1007.6 0.0
24/03:30pm 22.6 19.8 10.1 45 6.9 NW 15 20 8 11 1007.8 1007.5 0.0
24/03:00pm 23.0 20.5 9.8 43 7.3 NW 13 22 7 12 1007.7 1007.4 0.0
24/02:30pm 23.0 20.2 10.1 44 7.1 WNW 15 20 8 11 1008.1 1007.8 0.0
24/02:00pm 22.5 19.8 10.3 46 6.8 WNW 15 20 8 11 1008.2 1007.9 0.0
24/01:30pm 22.5 19.7 10.0 45 6.9 WNW 15 19 8 10 1008.6 1008.3 0.0
24/01:00pm 22.8 22.1 13.3 55 5.5 W 9 20 5 11 1009.3 1009.1 0.0
24/12:30pm 20.9 19.1 10.7 52 5.6 W 11 20 6 11 1010.0 1009.8 0.0
24/12:00pm 21.4 19.8 11.4 53 5.6 WSW 11 22 6 12 1010.3 1010.1 0.0
24/11:30am 21.1 20.4 13.3 61 4.5 SW 9 17 5 9 1010.9 1010.7 0.0
24/11:00am 20.4 20.1 12.6 61 4.4 SSW 6 9 3 5 1011.4 1011.2 0.0
24/10:30am 19.8 19.0 11.6 59 4.6 WNW 7 9 4 5 1012.0 1011.7 0.0
24/10:00am 18.9 18.9 11.2 61 4.2 S 2 7 1 4 1012.5 1012.2 0.0
24/09:30am 18.5 18.2 12.7 69 3.3 ESE 6 9 3 5 1012.7 1012.5 0.0
24/09:00am 17.2 17.5 12.1 72 2.8 SE 2 9 1 5 1012.9 1012.7 0.0
24/08:30am 15.7 16.0 12.3 80 1.9 WSW 2 6 1 3 1013.0 1012.8 0.0
24/08:00am 14.3 14.9 11.8 85 1.4 CALM 0 0 0 0 1013.1 1012.9 0.0
24/07:30am 13.2 13.7 11.6 90 0.9 CALM 0 0 0 0 1013.2 1013.0 0.0
24/07:00am 11.2 11.5 11.0 99 0.1 CALM 0 0 0 0 1013.0 1012.8 0.0
24/06:30am 9.6 9.5 9.5 99 0.1 CALM 0 0 0 0 1012.8 1012.6 0.0
24/06:00am 7.8 6.1 7.7 99 0.0 NW 6 9 3 5 1012.7 1012.5 0.0
24/05:30am 8.8 8.5 8.5 98 0.1 CALM 0 7 0 4 1012.3 1012.0 0.0
24/05:00am 9.3 8.0 9.2 99 0.0 WNW 6 9 3 5 1012.0 1011.7 0.0
24/04:30am 10.0 10.0 9.9 99 0.1 CALM 0 0 0 0 1011.6 1011.4 0.0
24/04:00am 10.1 9.7 9.8 98 0.2 E 2 7 1 4 1011.3 1011.1 0.0
24/03:30am 11.3 10.3 11.1 99 0.1 NW 7 9 4 5 1011.2 1011.0 0.0
24/03:00am 11.6 11.9 10.8 95 0.4 CALM 0 0 0 0 1011.2 1011.0 0.0
24/02:30am 12.5 12.9 11.2 92 0.7 CALM 0 0 0 0 1011.3 1011.1 0.0
24/02:00am 13.3 13.9 11.9 91 0.8 CALM 0 0 0 0 1011.4 1011.2 0.0
24/01:30am 13.5 13.9 12.4 93 0.6 NNE 2 6 1 3 1011.5 1011.3 0.0
24/01:00am 13.4 13.3 12.1 92 0.7 E 4 7 2 4 1011.5 1011.3 0.0
24/12:30am 13.7 13.7 12.3 91 0.8 N 4 7 2 4 1011.7 1011.5 0.0
24/12:00am 13.9 13.4 12.1 89 1.0 ESE 6 7 3 4 1012.0 1011.7 0.0
 
Date/Time
EST
Temp
°C
App
Temp
°C
Dew
Point
°C
Rel
Hum
%
Delta-T
°C
Wind Press
QNH
hPa
Press
MSL
hPa
Rain since
9am
mm
Dir  Spd
km/h
Gust
km/h
Spd
kts
Gust
kts
23/11:30pm 14.1 14.8 12.3 89 1.0 CALM 0 0 0 0 1012.0 1011.7 0.0
23/11:00pm 14.4 15.2 12.4 88 1.1 CALM 0 0 0 0 1012.0 1011.7 0.0
23/10:30pm 14.4 15.3 12.8 90 0.9 CALM 0 0 0 0 1012.0 1011.7 0.0
23/10:00pm 14.7 14.3 12.4 86 1.3 NNE 6 7 3 4 1012.1 1011.8 0.0
23/09:30pm 14.5 14.2 12.7 89 1.0 NE 6 9 3 5 1012.2 1011.9 0.0
23/09:00pm 14.6 15.5 13.0 90 0.9 CALM 0 0 0 0 1012.3 1012.0 0.0
23/08:30pm 14.3 15.2 13.0 92 0.7 CALM 0 0 0 0 1012.2 1011.9 0.0

Other Formats:

Comma delimited format used in spreadsheet applications
http://www.bom.gov.au/fwo/IDN60801/IDN60801.95758.axf

JavaScript Object Notation format (JSON) in row-major order
http://www.bom.gov.au/fwo/IDN60801/IDN60801.95758.json